sensor_id;sensor_type;location;lat;lon;timestamp;P1;durP1;ratioP1;P2;durP2;ratioP2
45730;SDS011;31440;48.584;13.460;2023-02-01T00:00:47;4.63;;;2.65;;
45730;SDS011;31440;48.584;13.460;2023-02-01T00:03:52;5.38;;;2.80;;
45730;SDS011;31440;48.584;13.460;2023-02-01T00:06:56;4.50;;;2.60;;
45730;SDS011;31440;48.584;13.460;2023-02-01T00:10:01;4.38;;;2.83;;
45730;SDS011;31440;48.584;13.460;2023-02-01T00:13:07;5.90;;;2.70;;
45730;SDS011;31440;48.584;13.460;2023-02-01T00:16:13;4.55;;;2.40;;
45730;SDS011;31440;48.584;13.460;2023-02-01T00:19:22;3.80;;;2.33;;
45730;SDS011;31440;48.584;13.460;2023-02-01T00:22:26;7.65;;;2.92;;
45730;SDS011;31440;48.584;13.460;2023-02-01T00:25:31;5.43;;;2.40;;
45730;SDS011;31440;48.584;13.460;2023-02-01T00:28:35;3.05;;;2.30;;
45730;SDS011;31440;48.584;13.460;2023-02-01T00:31:40;3.85;;;2.25;;
45730;SDS011;31440;48.584;13.460;2023-02-01T00:34:44;4.05;;;2.42;;
45730;SDS011;31440;48.584;13.460;2023-02-01T00:37:49;5.13;;;3.03;;
45730;SDS011;31440;48.584;13.460;2023-02-01T00:40:54;5.15;;;2.38;;
45730;SDS011;31440;48.584;13.460;2023-02-01T00:44:05;6.35;;;2.47;;
45730;SDS011;31440;48.584;13.460;2023-02-01T00:47:10;4.18;;;2.65;;
45730;SDS011;31440;48.584;13.460;2023-02-01T00:50:14;3.95;;;2.20;;
45730;SDS011;31440;48.584;13.460;2023-02-01T00:56:26;5.32;;;2.53;;
45730;SDS011;31440;48.584;13.460;2023-02-01T00:59:33;3.45;;;2.38;;
45730;SDS011;31440;48.584;13.460;2023-02-01T01:02:37;3.97;;;2.42;;
45730;SDS011;31440;48.584;13.460;2023-02-01T01:05:43;3.10;;;2.15;;
45730;SDS011;31440;48.584;13.460;2023-02-01T01:08:52;7.68;;;2.90;;
45730;SDS011;31440;48.584;13.460;2023-02-01T01:11:57;6.22;;;2.10;;
45730;SDS011;31440;48.584;13.460;2023-02-01T01:15:08;5.68;;;2.67;;
45730;SDS011;31440;48.584;13.460;2023-02-01T01:18:12;6.45;;;2.80;;
45730;SDS011;31440;48.584;13.460;2023-02-01T01:21:17;9.80;;;3.75;;
45730;SDS011;31440;48.584;13.460;2023-02-01T01:24:25;7.60;;;2.70;;
45730;SDS011;31440;48.584;13.460;2023-02-01T01:27:30;3.95;;;2.25;;
45730;SDS011;31440;48.584;13.460;2023-02-01T01:30:34;5.07;;;2.35;;
45730;SDS011;31440;48.584;13.460;2023-02-01T01:33:40;5.07;;;2.40;;
45730;SDS011;31440;48.584;13.460;2023-02-01T01:36:45;6.75;;;2.75;;
45730;SDS011;31440;48.584;13.460;2023-02-01T01:39:49;3.78;;;2.65;;
45730;SDS011;31440;48.584;13.460;2023-02-01T01:42:54;6.40;;;2.67;;
45730;SDS011;31440;48.584;13.460;2023-02-01T01:45:59;10.05;;;3.13;;
45730;SDS011;31440;48.584;13.460;2023-02-01T01:52:21;5.88;;;3.08;;
45730;SDS011;31440;48.584;13.460;2023-02-01T01:55:27;3.80;;;3.05;;
45730;SDS011;31440;48.584;13.460;2023-02-01T01:58:35;6.43;;;2.78;;
45730;SDS011;31440;48.584;13.460;2023-02-01T02:01:41;5.40;;;2.78;;
45730;SDS011;31440;48.584;13.460;2023-02-01T02:04:46;5.25;;;3.00;;
45730;SDS011;31440;48.584;13.460;2023-02-01T02:07:52;3.42;;;2.60;;
45730;SDS011;31440;48.584;13.460;2023-02-01T02:11:01;4.55;;;3.03;;
45730;SDS011;31440;48.584;13.460;2023-02-01T02:14:06;4.63;;;2.58;;
45730;SDS011;31440;48.584;13.460;2023-02-01T02:17:25;4.47;;;2.83;;
45730;SDS011;31440;48.584;13.460;2023-02-01T02:24:02;6.97;;;3.58;;
45730;SDS011;31440;48.584;13.460;2023-02-01T02:27:20;5.38;;;3.05;;
45730;SDS011;31440;48.584;13.460;2023-02-01T02:34:22;4.65;;;2.25;;
45730;SDS011;31440;48.584;13.460;2023-02-01T02:37:45;4.45;;;3.05;;
45730;SDS011;31440;48.584;13.460;2023-02-01T02:44:18;6.03;;;3.00;;
45730;SDS011;31440;48.584;13.460;2023-02-01T02:48:01;4.75;;;2.47;;
45730;SDS011;31440;48.584;13.460;2023-02-01T02:51:23;3.45;;;2.58;;
45730;SDS011;31440;48.584;13.460;2023-02-01T02:54:50;5.30;;;3.08;;
45730;SDS011;31440;48.584;13.460;2023-02-01T02:57:58;6.07;;;2.90;;
45730;SDS011;31440;48.584;13.460;2023-02-01T03:01:22;4.45;;;2.67;;
45730;SDS011;31440;48.584;13.460;2023-02-01T03:04:46;4.28;;;2.80;;
45730;SDS011;31440;48.584;13.460;2023-02-01T03:07:55;4.00;;;2.40;;
45730;SDS011;31440;48.584;13.460;2023-02-01T03:11:07;5.40;;;2.90;;
45730;SDS011;31440;48.584;13.460;2023-02-01T03:14:16;3.38;;;2.55;;
45730;SDS011;31440;48.584;13.460;2023-02-01T03:17:39;5.10;;;3.08;;
45730;SDS011;31440;48.584;13.460;2023-02-01T03:20:47;6.13;;;3.08;;
45730;SDS011;31440;48.584;13.460;2023-02-01T03:23:57;3.97;;;2.78;;
45730;SDS011;31440;48.584;13.460;2023-02-01T03:27:09;4.47;;;2.28;;
45730;SDS011;31440;48.584;13.460;2023-02-01T03:30:30;4.60;;;2.40;;
45730;SDS011;31440;48.584;13.460;2023-02-01T03:33:38;4.90;;;3.05;;
45730;SDS011;31440;48.584;13.460;2023-02-01T03:36:48;3.67;;;2.65;;
45730;SDS011;31440;48.584;13.460;2023-02-01T03:40:06;3.10;;;2.15;;
45730;SDS011;31440;48.584;13.460;2023-02-01T03:43:16;4.75;;;2.78;;
45730;SDS011;31440;48.584;13.460;2023-02-01T03:46:33;5.13;;;2.53;;
45730;SDS011;31440;48.584;13.460;2023-02-01T03:56:28;4.63;;;2.75;;
45730;SDS011;31440;48.584;13.460;2023-02-01T03:59:38;3.67;;;2.58;;
45730;SDS011;31440;48.584;13.460;2023-02-01T04:02:45;3.38;;;2.38;;
45730;SDS011;31440;48.584;13.460;2023-02-01T04:05:49;2.83;;;2.60;;
45730;SDS011;31440;48.584;13.460;2023-02-01T04:08:57;5.90;;;2.47;;
45730;SDS011;31440;48.584;13.460;2023-02-01T04:12:01;4.10;;;2.75;;
45730;SDS011;31440;48.584;13.460;2023-02-01T04:15:06;6.38;;;2.80;;
45730;SDS011;31440;48.584;13.460;2023-02-01T04:18:11;3.88;;;2.10;;
45730;SDS011;31440;48.584;13.460;2023-02-01T04:21:16;3.35;;;2.78;;
45730;SDS011;31440;48.584;13.460;2023-02-01T04:24:21;8.15;;;2.47;;
45730;SDS011;31440;48.584;13.460;2023-02-01T04:27:26;3.63;;;2.40;;
45730;SDS011;31440;48.584;13.460;2023-02-01T04:30:30;3.47;;;2.67;;
45730;SDS011;31440;48.584;13.460;2023-02-01T04:33:35;5.82;;;2.67;;
45730;SDS011;31440;48.584;13.460;2023-02-01T04:36:41;3.60;;;2.92;;
45730;SDS011;31440;48.584;13.460;2023-02-01T04:39:46;4.07;;;1.90;;
45730;SDS011;31440;48.584;13.460;2023-02-01T04:42:50;3.45;;;2.42;;
45730;SDS011;31440;48.584;13.460;2023-02-01T04:45:55;4.30;;;2.30;;
45730;SDS011;31440;48.584;13.460;2023-02-01T04:49:00;5.22;;;2.53;;
45730;SDS011;31440;48.584;13.460;2023-02-01T04:52:04;7.90;;;3.00;;
45730;SDS011;31440;48.584;13.460;2023-02-01T04:55:09;4.85;;;2.78;;
45730;SDS011;31440;48.584;13.460;2023-02-01T04:58:14;4.88;;;2.95;;
45730;SDS011;31440;48.584;13.460;2023-02-01T05:01:18;3.65;;;2.50;;
45730;SDS011;31440;48.584;13.460;2023-02-01T05:04:23;7.85;;;2.63;;
45730;SDS011;31440;48.584;13.460;2023-02-01T05:07:27;5.50;;;3.10;;
45730;SDS011;31440;48.584;13.460;2023-02-01T05:10:32;6.28;;;3.28;;
45730;SDS011;31440;48.584;13.460;2023-02-01T05:13:37;5.78;;;2.45;;
45730;SDS011;31440;48.584;13.460;2023-02-01T05:16:53;4.25;;;3.05;;
45730;SDS011;31440;48.584;13.460;2023-02-01T05:19:57;5.50;;;3.47;;
45730;SDS011;31440;48.584;13.460;2023-02-01T05:26:09;4.82;;;2.22;;
45730;SDS011;31440;48.584;13.460;2023-02-01T05:29:14;6.85;;;3.03;;
45730;SDS011;31440;48.584;13.460;2023-02-01T05:32:19;4.15;;;2.95;;
45730;SDS011;31440;48.584;13.460;2023-02-01T05:35:26;8.68;;;3.00;;
45730;SDS011;31440;48.584;13.460;2023-02-01T05:38:30;4.00;;;2.80;;
45730;SDS011;31440;48.584;13.460;2023-02-01T05:44:41;5.50;;;3.78;;
45730;SDS011;31440;48.584;13.460;2023-02-01T05:47:46;6.60;;;3.28;;
45730;SDS011;31440;48.584;13.460;2023-02-01T05:50:51;8.82;;;3.53;;
45730;SDS011;31440;48.584;13.460;2023-02-01T05:57:01;7.43;;;4.20;;
45730;SDS011;31440;48.584;13.460;2023-02-01T06:00:06;5.30;;;3.55;;
45730;SDS011;31440;48.584;13.460;2023-02-01T06:03:15;6.93;;;3.53;;
45730;SDS011;31440;48.584;13.460;2023-02-01T06:06:20;5.97;;;3.45;;
45730;SDS011;31440;48.584;13.460;2023-02-01T06:09:24;4.47;;;3.35;;
45730;SDS011;31440;48.584;13.460;2023-02-01T06:15:34;6.15;;;4.40;;
45730;SDS011;31440;48.584;13.460;2023-02-01T06:18:41;6.85;;;4.25;;
45730;SDS011;31440;48.584;13.460;2023-02-01T06:21:46;8.95;;;4.07;;
45730;SDS011;31440;48.584;13.460;2023-02-01T06:24:51;8.48;;;4.20;;
45730;SDS011;31440;48.584;13.460;2023-02-01T06:27:55;5.85;;;3.72;;
45730;SDS011;31440;48.584;13.460;2023-02-01T06:34:11;6.13;;;3.40;;
45730;SDS011;31440;48.584;13.460;2023-02-01T06:37:15;4.47;;;3.78;;
45730;SDS011;31440;48.584;13.460;2023-02-01T06:40:20;5.43;;;3.97;;
45730;SDS011;31440;48.584;13.460;2023-02-01T06:43:25;5.28;;;3.65;;
45730;SDS011;31440;48.584;13.460;2023-02-01T06:46:31;7.20;;;3.55;;
45730;SDS011;31440;48.584;13.460;2023-02-01T06:49:35;6.03;;;3.38;;
45730;SDS011;31440;48.584;13.460;2023-02-01T06:52:40;6.95;;;3.38;;
45730;SDS011;31440;48.584;13.460;2023-02-01T06:55:54;4.68;;;3.80;;
45730;SDS011;31440;48.584;13.460;2023-02-01T06:59:03;7.45;;;4.35;;
45730;SDS011;31440;48.584;13.460;2023-02-01T07:02:11;7.47;;;4.22;;
45730;SDS011;31440;48.584;13.460;2023-02-01T07:05:16;5.20;;;3.90;;
45730;SDS011;31440;48.584;13.460;2023-02-01T07:08:21;6.72;;;3.67;;
45730;SDS011;31440;48.584;13.460;2023-02-01T07:11:25;5.10;;;3.08;;
45730;SDS011;31440;48.584;13.460;2023-02-01T07:14:32;5.57;;;3.90;;
45730;SDS011;31440;48.584;13.460;2023-02-01T07:17:38;5.65;;;3.45;;
45730;SDS011;31440;48.584;13.460;2023-02-01T07:20:43;4.80;;;3.00;;
45730;SDS011;31440;48.584;13.460;2023-02-01T07:23:57;6.72;;;4.18;;
45730;SDS011;31440;48.584;13.460;2023-02-01T07:27:02;5.70;;;2.78;;
45730;SDS011;31440;48.584;13.460;2023-02-01T07:30:07;6.30;;;3.95;;
45730;SDS011;31440;48.584;13.460;2023-02-01T07:33:12;7.50;;;4.28;;
45730;SDS011;31440;48.584;13.460;2023-02-01T07:36:17;5.65;;;3.50;;
45730;SDS011;31440;48.584;13.460;2023-02-01T07:39:23;7.90;;;4.32;;
45730;SDS011;31440;48.584;13.460;2023-02-01T07:42:27;7.35;;;3.92;;
45730;SDS011;31440;48.584;13.460;2023-02-01T07:45:32;8.52;;;3.47;;
45730;SDS011;31440;48.584;13.460;2023-02-01T07:48:40;6.43;;;3.45;;
45730;SDS011;31440;48.584;13.460;2023-02-01T07:51:44;6.32;;;4.35;;
45730;SDS011;31440;48.584;13.460;2023-02-01T07:54:49;8.18;;;3.50;;
45730;SDS011;31440;48.584;13.460;2023-02-01T07:57:56;5.82;;;3.50;;
45730;SDS011;31440;48.584;13.460;2023-02-01T08:01:02;7.05;;;3.33;;
45730;SDS011;31440;48.584;13.460;2023-02-01T08:04:24;4.80;;;2.88;;
45730;SDS011;31440;48.584;13.460;2023-02-01T08:07:30;5.18;;;3.50;;
45730;SDS011;31440;48.584;13.460;2023-02-01T08:10:35;3.08;;;2.40;;
45730;SDS011;31440;48.584;13.460;2023-02-01T08:13:39;4.13;;;2.53;;
45730;SDS011;31440;48.584;13.460;2023-02-01T08:16:44;4.55;;;2.95;;
45730;SDS011;31440;48.584;13.460;2023-02-01T08:19:49;3.50;;;2.50;;
45730;SDS011;31440;48.584;13.460;2023-02-01T08:22:54;4.47;;;1.95;;
45730;SDS011;31440;48.584;13.460;2023-02-01T08:29:24;4.65;;;2.25;;
45730;SDS011;31440;48.584;13.460;2023-02-01T08:32:28;4.88;;;2.72;;
45730;SDS011;31440;48.584;13.460;2023-02-01T08:35:36;6.38;;;2.42;;
45730;SDS011;31440;48.584;13.460;2023-02-01T08:38:47;5.47;;;2.20;;
45730;SDS011;31440;48.584;13.460;2023-02-01T08:41:51;4.18;;;2.60;;
45730;SDS011;31440;48.584;13.460;2023-02-01T08:48:20;4.20;;;2.45;;
45730;SDS011;31440;48.584;13.460;2023-02-01T08:51:25;4.57;;;2.30;;
45730;SDS011;31440;48.584;13.460;2023-02-01T08:54:29;5.63;;;1.90;;
45730;SDS011;31440;48.584;13.460;2023-02-01T08:57:34;2.08;;;1.77;;
45730;SDS011;31440;48.584;13.460;2023-02-01T09:00:38;4.97;;;2.15;;
45730;SDS011;31440;48.584;13.460;2023-02-01T09:03:43;3.58;;;2.28;;
45730;SDS011;31440;48.584;13.460;2023-02-01T09:06:48;3.78;;;1.85;;
45730;SDS011;31440;48.584;13.460;2023-02-01T09:13:00;4.03;;;2.70;;
45730;SDS011;31440;48.584;13.460;2023-02-01T09:16:05;4.07;;;2.65;;
45730;SDS011;31440;48.584;13.460;2023-02-01T09:19:10;4.78;;;2.80;;
45730;SDS011;31440;48.584;13.460;2023-02-01T09:22:29;3.88;;;2.92;;
45730;SDS011;31440;48.584;13.460;2023-02-01T09:25:36;4.32;;;2.50;;
45730;SDS011;31440;48.584;13.460;2023-02-01T09:28:42;4.05;;;2.67;;
45730;SDS011;31440;48.584;13.460;2023-02-01T09:31:48;4.32;;;3.33;;
45730;SDS011;31440;48.584;13.460;2023-02-01T09:35:06;3.13;;;2.25;;
45730;SDS011;31440;48.584;13.460;2023-02-01T09:38:11;3.95;;;2.63;;
45730;SDS011;31440;48.584;13.460;2023-02-01T09:41:23;2.30;;;2.10;;
45730;SDS011;31440;48.584;13.460;2023-02-01T09:47:51;5.63;;;3.33;;
45730;SDS011;31440;48.584;13.460;2023-02-01T09:50:59;4.55;;;2.70;;
45730;SDS011;31440;48.584;13.460;2023-02-01T09:54:12;3.78;;;2.47;;
45730;SDS011;31440;48.584;13.460;2023-02-01T09:57:24;4.35;;;2.38;;
45730;SDS011;31440;48.584;13.460;2023-02-01T10:00:34;5.82;;;3.08;;
45730;SDS011;31440;48.584;13.460;2023-02-01T10:03:40;8.48;;;2.67;;
45730;SDS011;31440;48.584;13.460;2023-02-01T10:07:19;3.38;;;2.08;;
45730;SDS011;31440;48.584;13.460;2023-02-01T10:10:29;3.83;;;2.30;;
45730;SDS011;31440;48.584;13.460;2023-02-01T10:13:49;4.43;;;2.90;;
45730;SDS011;31440;48.584;13.460;2023-02-01T10:17:20;5.32;;;3.63;;
45730;SDS011;31440;48.584;13.460;2023-02-01T10:20:44;5.07;;;2.83;;
45730;SDS011;31440;48.584;13.460;2023-02-01T10:24:06;3.03;;;2.35;;
45730;SDS011;31440;48.584;13.460;2023-02-01T10:27:35;3.40;;;2.20;;
45730;SDS011;31440;48.584;13.460;2023-02-01T10:30:43;4.50;;;2.33;;
45730;SDS011;31440;48.584;13.460;2023-02-01T10:33:51;3.00;;;2.28;;
45730;SDS011;31440;48.584;13.460;2023-02-01T10:37:01;3.50;;;2.25;;
45730;SDS011;31440;48.584;13.460;2023-02-01T10:40:18;3.67;;;2.15;;
45730;SDS011;31440;48.584;13.460;2023-02-01T10:43:26;5.90;;;1.73;;
45730;SDS011;31440;48.584;13.460;2023-02-01T10:46:31;1.85;;;1.58;;
45730;SDS011;31440;48.584;13.460;2023-02-01T10:49:45;5.88;;;2.00;;
45730;SDS011;31440;48.584;13.460;2023-02-01T10:56:05;2.90;;;1.73;;
45730;SDS011;31440;48.584;13.460;2023-02-01T10:59:18;5.85;;;2.92;;
45730;SDS011;31440;48.584;13.460;2023-02-01T11:05:42;3.50;;;2.78;;
45730;SDS011;31440;48.584;13.460;2023-02-01T11:08:50;5.43;;;2.65;;
45730;SDS011;31440;48.584;13.460;2023-02-01T11:15:19;5.45;;;2.47;;
45730;SDS011;31440;48.584;13.460;2023-02-01T11:18:27;2.67;;;2.33;;
45730;SDS011;31440;48.584;13.460;2023-02-01T11:21:34;3.33;;;2.13;;
45730;SDS011;31440;48.584;13.460;2023-02-01T11:24:44;5.38;;;2.47;;
45730;SDS011;31440;48.584;13.460;2023-02-01T11:27:51;4.60;;;2.42;;
45730;SDS011;31440;48.584;13.460;2023-02-01T11:31:00;5.57;;;2.75;;
45730;SDS011;31440;48.584;13.460;2023-02-01T11:34:14;8.15;;;2.60;;
45730;SDS011;31440;48.584;13.460;2023-02-01T11:37:33;6.45;;;3.10;;
45730;SDS011;31440;48.584;13.460;2023-02-01T11:40:41;3.85;;;2.80;;
45730;SDS011;31440;48.584;13.460;2023-02-01T11:44:01;6.85;;;2.72;;
45730;SDS011;31440;48.584;13.460;2023-02-01T11:54:02;6.53;;;2.22;;
45730;SDS011;31440;48.584;13.460;2023-02-01T12:04:36;2.97;;;1.70;;
45730;SDS011;31440;48.584;13.460;2023-02-01T12:08:22;4.38;;;1.85;;
45730;SDS011;31440;48.584;13.460;2023-02-01T12:11:58;2.60;;;2.00;;
45730;SDS011;31440;48.584;13.460;2023-02-01T12:39:27;2.17;;;0.98;;
45730;SDS011;31440;48.584;13.460;2023-02-01T12:42:41;2.58;;;1.40;;
45730;SDS011;31440;48.584;13.460;2023-02-01T12:46:02;3.53;;;1.25;;
45730;SDS011;31440;48.584;13.460;2023-02-01T12:52:32;5.57;;;2.05;;
45730;SDS011;31440;48.584;13.460;2023-02-01T12:55:47;5.95;;;2.03;;
45730;SDS011;31440;48.584;13.460;2023-02-01T12:58:58;2.80;;;1.80;;
45730;SDS011;31440;48.584;13.460;2023-02-01T13:02:12;7.18;;;3.22;;
45730;SDS011;31440;48.584;13.460;2023-02-01T13:05:28;7.50;;;2.25;;
45730;SDS011;31440;48.584;13.460;2023-02-01T13:08:52;7.38;;;2.30;;
45730;SDS011;31440;48.584;13.460;2023-02-01T13:12:05;5.18;;;2.45;;
45730;SDS011;31440;48.584;13.460;2023-02-01T13:15:19;1.95;;;1.48;;
45730;SDS011;31440;48.584;13.460;2023-02-01T13:18:32;6.40;;;2.25;;
45730;SDS011;31440;48.584;13.460;2023-02-01T13:21:42;5.22;;;2.00;;
45730;SDS011;31440;48.584;13.460;2023-02-01T13:24:56;3.13;;;1.90;;
45730;SDS011;31440;48.584;13.460;2023-02-01T13:28:45;8.13;;;2.60;;
45730;SDS011;31440;48.584;13.460;2023-02-01T13:35:17;3.80;;;2.30;;
45730;SDS011;31440;48.584;13.460;2023-02-01T13:45:20;7.97;;;2.13;;
45730;SDS011;31440;48.584;13.460;2023-02-01T13:48:29;5.07;;;1.95;;
45730;SDS011;31440;48.584;13.460;2023-02-01T13:51:45;4.68;;;2.20;;
45730;SDS011;31440;48.584;13.460;2023-02-01T13:55:03;5.35;;;2.63;;
45730;SDS011;31440;48.584;13.460;2023-02-01T13:58:34;4.05;;;2.35;;
45730;SDS011;31440;48.584;13.460;2023-02-01T14:01:40;7.05;;;2.40;;
45730;SDS011;31440;48.584;13.460;2023-02-01T14:04:46;3.97;;;2.13;;
45730;SDS011;31440;48.584;13.460;2023-02-01T14:11:06;2.90;;;2.08;;
45730;SDS011;31440;48.584;13.460;2023-02-01T14:20:42;2.95;;;2.08;;
45730;SDS011;31440;48.584;13.460;2023-02-01T14:26:59;5.80;;;2.55;;
45730;SDS011;31440;48.584;13.460;2023-02-01T14:30:06;5.97;;;2.88;;
45730;SDS011;31440;48.584;13.460;2023-02-01T14:33:23;9.82;;;2.83;;
45730;SDS011;31440;48.584;13.460;2023-02-01T14:36:44;4.80;;;2.08;;
45730;SDS011;31440;48.584;13.460;2023-02-01T14:39:59;5.22;;;2.22;;
45730;SDS011;31440;48.584;13.460;2023-02-01T14:43:07;6.25;;;3.15;;
45730;SDS011;31440;48.584;13.460;2023-02-01T14:50:17;9.00;;;3.03;;
45730;SDS011;31440;48.584;13.460;2023-02-01T14:53:31;6.47;;;3.35;;
45730;SDS011;31440;48.584;13.460;2023-02-01T14:56:41;6.07;;;3.03;;
45730;SDS011;31440;48.584;13.460;2023-02-01T14:59:46;4.68;;;2.95;;
45730;SDS011;31440;48.584;13.460;2023-02-01T15:02:51;7.82;;;3.10;;
45730;SDS011;31440;48.584;13.460;2023-02-01T15:05:58;3.83;;;2.88;;
45730;SDS011;31440;48.584;13.460;2023-02-01T15:12:16;11.70;;;2.92;;
45730;SDS011;31440;48.584;13.460;2023-02-01T15:15:37;7.80;;;2.53;;
45730;SDS011;31440;48.584;13.460;2023-02-01T15:18:42;5.50;;;1.80;;
45730;SDS011;31440;48.584;13.460;2023-02-01T15:21:48;10.63;;;3.25;;
45730;SDS011;31440;48.584;13.460;2023-02-01T15:24:55;4.70;;;1.88;;
45730;SDS011;31440;48.584;13.460;2023-02-01T15:28:00;2.22;;;1.77;;
45730;SDS011;31440;48.584;13.460;2023-02-01T15:31:05;5.95;;;2.17;;
45730;SDS011;31440;48.584;13.460;2023-02-01T15:34:13;5.38;;;2.35;;
45730;SDS011;31440;48.584;13.460;2023-02-01T15:37:20;6.95;;;2.33;;
45730;SDS011;31440;48.584;13.460;2023-02-01T15:40:26;6.22;;;1.80;;
45730;SDS011;31440;48.584;13.460;2023-02-01T15:43:32;6.00;;;1.63;;
45730;SDS011;31440;48.584;13.460;2023-02-01T15:46:47;5.50;;;1.92;;
45730;SDS011;31440;48.584;13.460;2023-02-01T15:49:54;6.45;;;1.50;;
45730;SDS011;31440;48.584;13.460;2023-02-01T15:53:01;5.45;;;1.70;;
45730;SDS011;31440;48.584;13.460;2023-02-01T15:56:05;7.93;;;2.00;;
45730;SDS011;31440;48.584;13.460;2023-02-01T15:59:15;5.65;;;2.10;;
45730;SDS011;31440;48.584;13.460;2023-02-01T16:02:34;7.35;;;2.63;;
45730;SDS011;31440;48.584;13.460;2023-02-01T16:05:42;5.13;;;1.90;;
45730;SDS011;31440;48.584;13.460;2023-02-01T16:08:50;8.73;;;1.90;;
45730;SDS011;31440;48.584;13.460;2023-02-01T16:11:59;5.75;;;2.35;;
45730;SDS011;31440;48.584;13.460;2023-02-01T16:15:05;5.18;;;1.70;;
45730;SDS011;31440;48.584;13.460;2023-02-01T16:18:10;2.78;;;1.73;;
45730;SDS011;31440;48.584;13.460;2023-02-01T16:21:16;4.50;;;2.15;;
45730;SDS011;31440;48.584;13.460;2023-02-01T16:24:20;6.80;;;2.25;;
45730;SDS011;31440;48.584;13.460;2023-02-01T16:27:27;6.88;;;2.20;;
45730;SDS011;31440;48.584;13.460;2023-02-01T16:30:31;5.72;;;1.73;;
45730;SDS011;31440;48.584;13.460;2023-02-01T16:33:37;3.78;;;1.65;;
45730;SDS011;31440;48.584;13.460;2023-02-01T16:36:41;7.35;;;1.98;;
45730;SDS011;31440;48.584;13.460;2023-02-01T16:39:47;5.43;;;1.95;;
45730;SDS011;31440;48.584;13.460;2023-02-01T16:42:52;8.38;;;1.85;;
45730;SDS011;31440;48.584;13.460;2023-02-01T16:45:59;4.38;;;1.85;;
45730;SDS011;31440;48.584;13.460;2023-02-01T16:49:08;6.15;;;2.13;;
45730;SDS011;31440;48.584;13.460;2023-02-01T16:55:28;4.68;;;1.88;;
45730;SDS011;31440;48.584;13.460;2023-02-01T16:58:33;7.53;;;1.73;;
45730;SDS011;31440;48.584;13.460;2023-02-01T17:01:39;5.47;;;1.73;;
45730;SDS011;31440;48.584;13.460;2023-02-01T17:04:45;5.50;;;1.80;;
45730;SDS011;31440;48.584;13.460;2023-02-01T17:07:53;8.07;;;1.98;;
45730;SDS011;31440;48.584;13.460;2023-02-01T17:14:16;4.82;;;2.03;;
45730;SDS011;31440;48.584;13.460;2023-02-01T17:17:23;4.97;;;1.80;;
45730;SDS011;31440;48.584;13.460;2023-02-01T17:20:42;6.38;;;1.90;;
45730;SDS011;31440;48.584;13.460;2023-02-01T17:23:47;5.28;;;1.85;;
45730;SDS011;31440;48.584;13.460;2023-02-01T17:26:51;11.65;;;2.00;;
45730;SDS011;31440;48.584;13.460;2023-02-01T17:29:56;6.70;;;1.80;;
45730;SDS011;31440;48.584;13.460;2023-02-01T17:33:02;3.58;;;1.52;;
45730;SDS011;31440;48.584;13.460;2023-02-01T17:36:25;3.70;;;1.50;;
45730;SDS011;31440;48.584;13.460;2023-02-01T17:39:30;11.90;;;3.55;;
45730;SDS011;31440;48.584;13.460;2023-02-01T17:42:52;8.60;;;1.77;;
45730;SDS011;31440;48.584;13.460;2023-02-01T17:49:15;4.00;;;1.50;;
45730;SDS011;31440;48.584;13.460;2023-02-01T17:52:19;5.63;;;2.92;;
45730;SDS011;31440;48.584;13.460;2023-02-01T17:55:25;8.63;;;1.85;;
45730;SDS011;31440;48.584;13.460;2023-02-01T17:58:30;6.35;;;1.83;;
45730;SDS011;31440;48.584;13.460;2023-02-01T18:04:43;8.05;;;1.80;;
45730;SDS011;31440;48.584;13.460;2023-02-01T18:07:48;4.82;;;1.35;;
45730;SDS011;31440;48.584;13.460;2023-02-01T18:10:54;6.97;;;2.42;;
45730;SDS011;31440;48.584;13.460;2023-02-01T18:14:03;3.22;;;1.58;;
45730;SDS011;31440;48.584;13.460;2023-02-01T18:17:08;7.45;;;1.48;;
45730;SDS011;31440;48.584;13.460;2023-02-01T18:20:14;4.72;;;1.98;;
45730;SDS011;31440;48.584;13.460;2023-02-01T18:23:20;5.05;;;1.50;;
45730;SDS011;31440;48.584;13.460;2023-02-01T18:26:26;2.65;;;1.25;;
45730;SDS011;31440;48.584;13.460;2023-02-01T18:29:31;8.70;;;1.48;;
45730;SDS011;31440;48.584;13.460;2023-02-01T18:32:35;2.63;;;1.25;;
45730;SDS011;31440;48.584;13.460;2023-02-01T18:35:40;5.85;;;1.60;;
45730;SDS011;31440;48.584;13.460;2023-02-01T18:38:45;9.82;;;1.73;;
45730;SDS011;31440;48.584;13.460;2023-02-01T18:41:49;4.45;;;1.33;;
45730;SDS011;31440;48.584;13.460;2023-02-01T18:44:54;4.55;;;1.33;;
45730;SDS011;31440;48.584;13.460;2023-02-01T18:48:03;7.28;;;1.83;;
45730;SDS011;31440;48.584;13.460;2023-02-01T18:51:11;2.05;;;1.23;;
45730;SDS011;31440;48.584;13.460;2023-02-01T18:54:20;4.82;;;1.83;;
45730;SDS011;31440;48.584;13.460;2023-02-01T18:57:25;6.32;;;2.10;;
45730;SDS011;31440;48.584;13.460;2023-02-01T19:00:29;6.22;;;1.63;;
45730;SDS011;31440;48.584;13.460;2023-02-01T19:06:46;6.65;;;1.58;;
45730;SDS011;31440;48.584;13.460;2023-02-01T19:09:51;5.30;;;1.40;;
45730;SDS011;31440;48.584;13.460;2023-02-01T19:12:55;7.78;;;1.88;;
45730;SDS011;31440;48.584;13.460;2023-02-01T19:16:07;11.73;;;2.10;;
45730;SDS011;31440;48.584;13.460;2023-02-01T19:19:13;7.38;;;1.83;;
45730;SDS011;31440;48.584;13.460;2023-02-01T19:25:24;11.20;;;2.35;;
45730;SDS011;31440;48.584;13.460;2023-02-01T19:28:30;5.00;;;1.67;;
45730;SDS011;31440;48.584;13.460;2023-02-01T19:31:35;5.97;;;1.73;;
45730;SDS011;31440;48.584;13.460;2023-02-01T19:34:40;6.43;;;1.33;;
45730;SDS011;31440;48.584;13.460;2023-02-01T19:37:45;5.55;;;1.80;;
45730;SDS011;31440;48.584;13.460;2023-02-01T19:40:51;3.65;;;1.83;;
45730;SDS011;31440;48.584;13.460;2023-02-01T19:43:58;9.02;;;2.20;;
45730;SDS011;31440;48.584;13.460;2023-02-01T19:47:02;4.97;;;2.20;;
45730;SDS011;31440;48.584;13.460;2023-02-01T19:50:07;5.90;;;2.00;;
45730;SDS011;31440;48.584;13.460;2023-02-01T19:53:13;3.75;;;1.65;;
45730;SDS011;31440;48.584;13.460;2023-02-01T19:56:18;6.82;;;1.67;;
45730;SDS011;31440;48.584;13.460;2023-02-01T19:59:23;6.75;;;1.60;;
45730;SDS011;31440;48.584;13.460;2023-02-01T20:02:29;11.40;;;2.05;;
45730;SDS011;31440;48.584;13.460;2023-02-01T20:05:34;9.63;;;1.65;;
45730;SDS011;31440;48.584;13.460;2023-02-01T20:08:38;4.40;;;2.10;;
45730;SDS011;31440;48.584;13.460;2023-02-01T20:11:43;3.25;;;1.92;;
45730;SDS011;31440;48.584;13.460;2023-02-01T20:14:48;2.67;;;1.55;;
45730;SDS011;31440;48.584;13.460;2023-02-01T20:17:52;3.97;;;1.65;;
45730;SDS011;31440;48.584;13.460;2023-02-01T20:20:58;6.70;;;2.67;;
45730;SDS011;31440;48.584;13.460;2023-02-01T20:24:03;7.55;;;2.08;;
45730;SDS011;31440;48.584;13.460;2023-02-01T20:27:08;5.65;;;2.15;;
45730;SDS011;31440;48.584;13.460;2023-02-01T20:30:15;5.43;;;2.08;;
45730;SDS011;31440;48.584;13.460;2023-02-01T20:33:23;6.35;;;1.60;;
45730;SDS011;31440;48.584;13.460;2023-02-01T20:36:31;4.32;;;2.53;;
45730;SDS011;31440;48.584;13.460;2023-02-01T20:39:36;8.40;;;1.98;;
45730;SDS011;31440;48.584;13.460;2023-02-01T20:42:40;9.70;;;1.80;;
45730;SDS011;31440;48.584;13.460;2023-02-01T20:45:45;13.90;;;2.58;;
45730;SDS011;31440;48.584;13.460;2023-02-01T20:48:52;5.03;;;2.33;;
45730;SDS011;31440;48.584;13.460;2023-02-01T20:51:57;3.63;;;2.03;;
45730;SDS011;31440;48.584;13.460;2023-02-01T20:55:02;8.73;;;3.30;;
45730;SDS011;31440;48.584;13.460;2023-02-01T20:58:06;3.42;;;1.55;;
45730;SDS011;31440;48.584;13.460;2023-02-01T21:01:11;5.63;;;1.60;;
45730;SDS011;31440;48.584;13.460;2023-02-01T21:04:17;4.82;;;1.55;;
45730;SDS011;31440;48.584;13.460;2023-02-01T21:07:25;6.18;;;2.17;;
45730;SDS011;31440;48.584;13.460;2023-02-01T21:10:30;6.60;;;2.60;;